Sama, Spain
Current Conditions -  °F | °C
As of 12:30 PM on Wednesday 26 Nov 2014 (Local Time) from LEAS Reporting Station
Broken Clouds Broken Clouds  
Wind Chill: 55°   Ceiling: 6800
Heat Index: 55°   Visibility: 6mi
Dew Point: 48°   Wind: 0mph
Humidity: 77%   Direction: NA
Pressure: 29.91"   Gusts: NA
Location:  43.3°N, 5.68°W
Report Text: LEAS 261130Z 00000KT 9000 FEW040 BKN068 13/09 Q1013 NOSIG
Loading
Personal Weather Stations






























Interactive Weather Map New forecast layout! Learn more

10-Day Weather Forecast

Advertisements
Track Severe Weather on mobile